createdAt,value
2022-11-29T00:01:54.112Z,34.87
2022-11-29T00:04:22.432Z,35.87
2022-11-29T00:06:50.781Z,37.57
2022-11-29T00:09:19.172Z,33.17
2022-11-29T00:12:04.710Z,34.40
2022-11-29T00:14:34.560Z,32.87
2022-11-29T00:17:04.479Z,34.70
2022-11-29T00:19:33.546Z,33.42
2022-11-29T00:22:02.439Z,34.73
2022-11-29T00:24:32.777Z,32.87
2022-11-29T00:27:01.920Z,37.57
2022-11-29T00:29:31.153Z,37.47
2022-11-29T00:32:01.064Z,34.93
2022-11-29T00:34:29.941Z,35.03
2022-11-29T00:36:58.411Z,33.67
2022-11-29T00:39:26.955Z,34.27
2022-11-29T00:41:55.455Z,37.10
2022-11-29T00:44:23.787Z,35.23
2022-11-29T00:46:52.107Z,34.70
2022-11-29T00:49:22.148Z,35.97
2022-11-29T00:51:50.719Z,36.10
2022-11-29T00:54:19.052Z,36.20
2022-11-29T00:56:47.345Z,33.43
2022-11-29T00:59:15.615Z,32.33
2022-11-29T01:01:43.962Z,35.77
2022-11-29T01:04:12.430Z,36.30
2022-11-29T01:06:42.301Z,35.07
2022-11-29T01:09:10.693Z,34.73
2022-11-29T01:11:38.985Z,36.10
2022-11-29T01:14:07.255Z,35.40
2022-11-29T01:16:36.132Z,35.30
2022-11-29T01:19:04.797Z,33.80
2022-11-29T01:21:33.238Z,36.43
2022-11-29T01:24:02.912Z,33.80
2022-11-29T01:26:32.640Z,36.00
2022-11-29T01:29:01.386Z,34.73
2022-11-29T01:31:31.450Z,36.70
2022-11-29T01:34:01.726Z,36.60
2022-11-29T01:36:30.822Z,32.57
2022-11-29T01:39:00.827Z,35.60
2022-11-29T01:41:32.806Z,34.67
2022-11-29T01:44:03.860Z,37.50
2022-11-29T01:46:33.663Z,35.80
2022-11-29T01:49:05.952Z,32.90
2022-11-29T01:51:36.073Z,36.30
2022-11-29T01:54:04.686Z,35.97
2022-11-29T01:56:35.329Z,37.57
2022-11-29T01:59:05.890Z,31.97
2022-11-29T02:01:35.182Z,38.23
2022-11-29T02:04:03.983Z,36.13
2022-11-29T02:06:32.385Z,32.73
2022-11-29T02:09:00.728Z,33.20
2022-11-29T02:11:51.475Z,34.00
2022-11-29T02:14:35.363Z,32.80
2022-11-29T02:17:12.422Z,36.27
2022-11-29T02:20:07.097Z,33.80
2022-11-29T02:22:42.752Z,34.03
2022-11-29T02:25:30.865Z,33.90
2022-11-29T02:28:43.677Z,35.00
2022-11-29T02:31:53.377Z,32.47
2022-11-29T02:34:34.651Z,31.60
2022-11-29T02:37:14.526Z,33.83
2022-11-29T02:39:57.748Z,36.17
2022-11-29T02:42:56.046Z,34.80
2022-11-29T02:45:34.569Z,38.30
2022-11-29T02:48:15.795Z,33.33
2022-11-29T02:50:51.442Z,35.27
2022-11-29T02:53:24.361Z,31.67
2022-11-29T02:55:58.661Z,37.37
2022-11-29T02:58:29.917Z,37.23
2022-11-29T03:01:02.626Z,36.23
2022-11-29T03:03:36.781Z,33.10
2022-11-29T03:06:15.044Z,35.73
2022-11-29T03:08:49.795Z,34.60
2022-11-29T03:11:25.699Z,32.90
2022-11-29T03:14:14.271Z,32.33
2022-11-29T03:16:47.849Z,34.30
2022-11-29T03:19:32.268Z,31.80
2022-11-29T03:22:09.410Z,35.80
2022-11-29T03:24:44.204Z,32.00
2022-11-29T03:27:14.865Z,36.20
2022-11-29T03:29:48.761Z,31.50
2022-11-29T03:32:21.833Z,31.90
2022-11-29T03:34:57.888Z,35.07
2022-11-29T03:37:32.514Z,29.93
2022-11-29T03:40:05.912Z,34.03
2022-11-29T03:42:37.693Z,33.20
2022-11-29T03:45:10.350Z,30.40
2022-11-29T03:47:46.006Z,31.27
2022-11-29T03:50:18.280Z,39.93
2022-11-29T03:52:51.766Z,35.57
2022-11-29T03:55:45.304Z,38.87
2022-11-29T03:58:22.624Z,36.80
2022-11-29T04:01:04.743Z,37.43
2022-11-29T04:03:52.455Z,35.87
2022-11-29T04:06:25.694Z,35.73
2022-11-29T04:09:16.156Z,35.87
2022-11-29T04:12:05.251Z,34.60
2022-11-29T04:14:52.044Z,37.10
2022-11-29T04:17:43.156Z,37.03
2022-11-29T04:20:48.926Z,32.87
2022-11-29T04:23:53.260Z,32.90
2022-11-29T04:26:53.520Z,31.47
2022-11-29T04:29:51.441Z,32.17
2022-11-29T04:32:52.147Z,34.00
2022-11-29T04:35:34.341Z,31.57
2022-11-29T04:38:18.762Z,31.63
2022-11-29T04:41:15.445Z,32.10
2022-11-29T04:43:53.167Z,31.23
2022-11-29T04:46:37.958Z,33.70
2022-11-29T04:49:31.013Z,30.70
2022-11-29T04:52:11.386Z,32.67
2022-11-29T04:54:46.943Z,29.43
2022-11-29T04:57:22.730Z,32.23
2022-11-29T04:59:57.902Z,34.47
2022-11-29T05:02:33.939Z,34.40
2022-11-29T05:05:08.592Z,34.30
2022-11-29T05:07:44.965Z,33.43
2022-11-29T05:10:21.746Z,33.43
2022-11-29T05:12:54.874Z,32.20
2022-11-29T05:15:51.580Z,33.93
2022-11-29T05:18:27.686Z,36.53
2022-11-29T05:21:01.911Z,33.50
2022-11-29T05:23:48.128Z,34.27
2022-11-29T05:26:21.067Z,33.73
2022-11-29T05:28:57.772Z,35.00
2022-11-29T05:31:51.589Z,32.50
2022-11-29T05:34:35.171Z,34.60
2022-11-29T05:37:10.478Z,32.53
2022-11-29T05:39:44.624Z,29.63
2022-11-29T05:42:37.545Z,29.40
2022-11-29T05:45:10.173Z,29.13
2022-11-29T05:47:46.711Z,30.83
2022-11-29T05:50:20.615Z,29.90
2022-11-29T05:52:55.083Z,33.20
2022-11-29T05:55:33.973Z,30.90
2022-11-29T05:58:05.524Z,28.90
2022-11-29T06:00:41.498Z,33.93
2022-11-29T06:03:16.219Z,30.67
2022-11-29T06:05:48.894Z,32.40
2022-11-29T06:08:21.014Z,29.77
2022-11-29T06:10:57.808Z,33.03
2022-11-29T06:13:36.775Z,32.40
2022-11-29T06:16:20.687Z,32.67
2022-11-29T06:19:16.384Z,31.70
2022-11-29T06:21:48.312Z,33.03
2022-11-29T06:24:37.462Z,32.43
2022-11-29T06:27:19.445Z,31.13
2022-11-29T06:29:52.825Z,31.23
2022-11-29T06:32:26.783Z,30.80
2022-11-29T06:35:00.412Z,31.57
2022-11-29T06:37:32.506Z,28.40
2022-11-29T06:40:01.237Z,28.60
2022-11-29T06:42:29.528Z,29.33
2022-11-29T06:44:58.135Z,32.73
2022-11-29T06:47:29.905Z,34.00
2022-11-29T06:50:06.720Z,29.27
2022-11-29T06:52:44.887Z,28.57
2022-11-29T06:55:16.706Z,30.00
2022-11-29T06:57:56.472Z,25.30
2022-11-29T07:00:27.726Z,28.27
2022-11-29T07:03:20.234Z,26.63
2022-11-29T07:05:51.953Z,27.47
2022-11-29T07:08:22.136Z,30.00
2022-11-29T07:10:53.295Z,28.57
2022-11-29T07:13:22.790Z,31.27
2022-11-29T07:16:04.321Z,26.80
2022-11-29T07:18:35.820Z,28.60
2022-11-29T07:21:12.970Z,28.80
2022-11-29T07:23:45.445Z,26.80
2022-11-29T07:26:20.068Z,29.03
2022-11-29T07:29:01.484Z,29.63
2022-11-29T07:31:36.701Z,27.43
2022-11-29T07:34:12.082Z,26.00
2022-11-29T07:36:52.554Z,28.20
2022-11-29T07:39:27.080Z,26.70
2022-11-29T07:42:01.969Z,26.50
2022-11-29T07:44:37.760Z,27.67
2022-11-29T07:47:06.330Z,27.90
2022-11-29T07:49:34.677Z,26.10
2022-11-29T07:52:04.388Z,26.30
2022-11-29T07:54:32.707Z,27.10
2022-11-29T07:57:01.153Z,24.90
2022-11-29T07:59:29.450Z,26.83
2022-11-29T08:01:58.923Z,27.43
2022-11-29T08:04:27.246Z,29.03
2022-11-29T08:06:55.628Z,27.50
2022-11-29T08:09:25.576Z,27.20
2022-11-29T08:11:53.917Z,28.57
2022-11-29T08:14:22.345Z,29.40
2022-11-29T08:16:50.734Z,28.57
2022-11-29T08:19:19.847Z,27.67
2022-11-29T08:21:48.366Z,26.87
2022-11-29T08:24:16.597Z,27.47
2022-11-29T08:26:46.268Z,28.30
2022-11-29T08:29:14.526Z,26.97
2022-11-29T08:31:43.289Z,27.90
2022-11-29T08:34:11.857Z,30.00
2022-11-29T08:36:40.325Z,27.60
2022-11-29T08:39:09.712Z,28.40
2022-11-29T08:41:38.824Z,29.20
2022-11-29T08:44:08.971Z,29.83
2022-11-29T08:47:03.178Z,26.80
2022-11-29T08:49:31.494Z,29.47
2022-11-29T08:52:14.313Z,27.40
2022-11-29T08:54:43.854Z,27.10
2022-11-29T09:00:03.165Z,29.30
2022-11-29T09:02:32.091Z,28.90
2022-11-29T09:05:00.425Z,26.50
2022-11-29T09:07:29.258Z,27.43
2022-11-29T09:09:57.646Z,28.80
2022-11-29T09:12:26.130Z,29.70
2022-11-29T09:14:54.460Z,28.27
2022-11-29T09:17:24.121Z,29.30
2022-11-29T09:19:52.473Z,30.47
2022-11-29T09:22:21.036Z,26.23
2022-11-29T09:24:49.312Z,28.93
2022-11-29T09:27:20.192Z,26.87
2022-11-29T09:29:48.482Z,28.90
2022-11-29T09:32:16.805Z,29.17
2022-11-29T09:34:46.762Z,27.80
2022-11-29T09:37:15.251Z,26.50
2022-11-29T09:39:43.515Z,28.40
2022-11-29T09:42:31.610Z,27.20
2022-11-29T09:45:05.100Z,27.90
2022-11-29T09:47:53.203Z,26.70
2022-11-29T09:50:28.557Z,26.37
2022-11-29T09:53:09.402Z,25.50
2022-11-29T09:55:47.813Z,28.00
2022-11-29T09:58:20.899Z,26.00
2022-11-29T10:00:51.669Z,25.90
2022-11-29T10:03:25.555Z,28.83
2022-11-29T10:05:59.679Z,26.60
2022-11-29T10:08:33.890Z,27.10
2022-11-29T10:11:13.119Z,24.63
2022-11-29T10:13:45.777Z,28.97
2022-11-29T10:16:19.756Z,26.40
2022-11-29T10:18:51.437Z,28.33
2022-11-29T10:21:24.516Z,26.67
2022-11-29T10:23:55.683Z,27.40
2022-11-29T10:26:27.304Z,28.27
2022-11-29T10:28:58.112Z,27.07
2022-11-29T10:31:29.343Z,27.20
2022-11-29T10:34:01.066Z,28.20
2022-11-29T10:36:37.544Z,26.97
2022-11-29T10:39:14.778Z,27.70
2022-11-29T10:41:43.213Z,26.20
2022-11-29T10:44:14.062Z,25.43
2022-11-29T10:46:42.785Z,26.20
2022-11-29T10:49:15.275Z,25.13
2022-11-29T10:51:46.081Z,24.60
2022-11-29T10:54:32.253Z,23.37
2022-11-29T10:57:02.072Z,23.57
2022-11-29T10:59:33.022Z,23.53
2022-11-29T11:02:01.589Z,25.30
2022-11-29T11:04:31.619Z,25.90
2022-11-29T11:07:03.926Z,27.80
2022-11-29T11:09:39.104Z,26.77
2022-11-29T11:12:09.400Z,27.07
2022-11-29T11:14:39.370Z,26.10
2022-11-29T11:17:26.191Z,26.20
2022-11-29T11:20:01.123Z,26.57
2022-11-29T11:22:32.785Z,27.40
2022-11-29T11:25:03.857Z,25.67
2022-11-29T11:27:33.504Z,25.10
2022-11-29T11:30:02.099Z,24.90
2022-11-29T11:32:30.485Z,23.90
2022-11-29T11:35:00.195Z,25.13
2022-11-29T11:37:30.855Z,24.73
2022-11-29T11:40:00.405Z,23.87
2022-11-29T11:42:40.656Z,27.83
2022-11-29T11:45:27.280Z,24.40
2022-11-29T11:47:58.054Z,25.13
2022-11-29T11:50:29.894Z,23.40
2022-11-29T11:53:01.798Z,21.60
2022-11-29T11:55:36.306Z,22.17
2022-11-29T11:58:10.667Z,22.17
2022-11-29T12:01:04.109Z,23.20
2022-11-29T12:03:37.557Z,22.30
2022-11-29T12:06:18.970Z,24.70
2022-11-29T12:08:49.098Z,22.40
2022-11-29T12:11:18.953Z,25.00
2022-11-29T12:13:51.748Z,24.00
2022-11-29T12:16:27.613Z,25.80
2022-11-29T12:19:00.845Z,23.93
2022-11-29T12:21:34.580Z,25.83
2022-11-29T12:24:09.958Z,27.00
2022-11-29T12:29:33.532Z,25.17
2022-11-29T12:32:13.123Z,26.73
2022-11-29T12:34:55.015Z,23.40
2022-11-29T12:37:28.044Z,22.90
2022-11-29T12:40:04.803Z,22.83
2022-11-29T12:42:41.328Z,22.90
2022-11-29T12:45:24.835Z,23.70
2022-11-29T12:47:59.084Z,25.50
2022-11-29T12:50:34.695Z,24.17
2022-11-29T12:53:25.530Z,24.57
2022-11-29T12:56:05.183Z,22.30
2022-11-29T12:58:44.227Z,23.70
2022-11-29T13:01:21.478Z,24.20
2022-11-29T13:03:56.594Z,24.20
2022-11-29T13:06:30.555Z,23.50
2022-11-29T13:09:25.812Z,23.80
2022-11-29T13:11:57.953Z,23.37
2022-11-29T13:14:48.238Z,22.37
2022-11-29T13:17:25.484Z,22.60
2022-11-29T13:19:57.904Z,21.83
2022-11-29T13:22:32.079Z,21.33
2022-11-29T13:25:02.835Z,21.60
2022-11-29T13:27:38.069Z,22.67
2022-11-29T13:30:09.093Z,25.20
2022-11-29T13:32:39.962Z,25.27
2022-11-29T13:35:09.991Z,23.57
2022-11-29T13:37:42.188Z,23.47
2022-11-29T13:40:21.418Z,23.93
2022-11-29T13:42:59.377Z,25.13
2022-11-29T13:45:32.667Z,23.43
2022-11-29T13:48:02.260Z,24.40
2022-11-29T13:50:39.033Z,21.97
2022-11-29T13:53:14.570Z,23.37
2022-11-29T13:55:47.984Z,21.00
2022-11-29T13:58:35.452Z,20.93
2022-11-29T14:01:07.992Z,20.20
2022-11-29T14:03:39.762Z,19.00
2022-11-29T14:06:14.462Z,20.90
2022-11-29T14:09:24.503Z,19.70
2022-11-29T14:12:00.182Z,21.13
2022-11-29T14:14:33.319Z,19.90
2022-11-29T14:17:02.939Z,18.37
2022-11-29T14:19:34.060Z,18.70
2022-11-29T14:22:20.727Z,15.73
2022-11-29T14:25:00.015Z,16.97
2022-11-29T14:28:08.341Z,18.03
2022-11-29T14:30:52.313Z,17.10
2022-11-29T14:33:51.143Z,18.03
2022-11-29T14:36:27.305Z,17.57
2022-11-29T14:39:05.864Z,17.03
2022-11-29T14:41:46.971Z,17.53
2022-11-29T14:44:19.276Z,17.70
2022-11-29T14:46:49.539Z,18.07
2022-11-29T14:49:23.571Z,16.87
2022-11-29T14:52:18.447Z,18.40
2022-11-29T14:54:59.162Z,15.90
2022-11-29T14:57:53.331Z,18.30
2022-11-29T15:00:23.225Z,16.40
2022-11-29T15:02:54.632Z,16.80
2022-11-29T15:05:28.365Z,19.20
2022-11-29T15:08:05.287Z,18.63
2022-11-29T15:10:37.704Z,18.20
2022-11-29T15:13:06.315Z,16.07
2022-11-29T15:15:39.374Z,18.37
2022-11-29T15:18:21.580Z,17.30
2022-11-29T15:21:04.008Z,19.40
2022-11-29T15:23:41.164Z,19.97
2022-11-29T15:26:17.712Z,18.70
2022-11-29T15:28:46.470Z,18.67
2022-11-29T15:31:17.848Z,19.60
2022-11-29T15:33:48.773Z,19.90
2022-11-29T15:36:19.939Z,19.70
2022-11-29T15:38:49.715Z,20.70
2022-11-29T15:41:23.261Z,18.63
2022-11-29T15:43:54.493Z,21.10
2022-11-29T15:46:25.924Z,18.23
2022-11-29T15:48:56.423Z,21.03
2022-11-29T15:51:29.749Z,19.00
2022-11-29T15:54:12.074Z,19.17
2022-11-29T15:56:44.153Z,19.77
2022-11-29T15:59:21.611Z,20.17
2022-11-29T16:01:51.796Z,20.57
2022-11-29T16:04:22.692Z,18.77
2022-11-29T16:06:52.306Z,19.10
2022-11-29T16:09:23.989Z,19.30
2022-11-29T16:11:53.087Z,20.77
2022-11-29T16:14:23.754Z,19.03
2022-11-29T16:16:54.696Z,19.03
2022-11-29T16:19:30.910Z,19.60
2022-11-29T16:22:01.479Z,18.67
2022-11-29T16:24:31.750Z,19.07
2022-11-29T16:27:02.366Z,19.70
2022-11-29T16:29:32.723Z,21.20
2022-11-29T16:32:05.547Z,20.93
2022-11-29T16:34:42.986Z,22.43
2022-11-29T16:37:21.914Z,18.93
2022-11-29T16:39:54.126Z,20.33
2022-11-29T16:42:26.021Z,21.50
2022-11-29T16:45:34.255Z,21.97
2022-11-29T16:48:05.859Z,21.83
2022-11-29T16:50:36.961Z,18.87
2022-11-29T16:53:36.244Z,23.20
2022-11-29T16:56:06.609Z,21.47
2022-11-29T16:58:40.193Z,18.97
2022-11-29T17:01:28.314Z,17.63
2022-11-29T17:03:58.650Z,19.63
2022-11-29T17:06:29.983Z,19.80
2022-11-29T17:09:01.192Z,21.77
2022-11-29T17:11:32.907Z,21.17
2022-11-29T17:14:03.276Z,20.57
2022-11-29T17:16:32.905Z,20.80
2022-11-29T17:19:02.063Z,20.70
2022-11-29T17:21:32.508Z,20.80
2022-11-29T17:24:01.261Z,19.80
2022-11-29T17:26:32.097Z,22.30
2022-11-29T17:29:01.253Z,21.97
2022-11-29T17:31:35.137Z,21.70
2022-11-29T17:34:04.347Z,20.27
2022-11-29T17:36:34.492Z,21.40
2022-11-29T17:39:03.165Z,20.20
2022-11-29T17:41:33.130Z,20.70
2022-11-29T17:44:02.499Z,22.63
2022-11-29T17:46:33.229Z,20.80
2022-11-29T17:49:04.179Z,21.93
2022-11-29T17:51:55.928Z,21.93
2022-11-29T17:54:28.419Z,21.50
2022-11-29T17:56:57.682Z,20.53
2022-11-29T17:59:27.847Z,22.50
2022-11-29T18:01:57.569Z,20.77
2022-11-29T18:04:27.131Z,21.47
2022-11-29T18:06:57.657Z,21.07
2022-11-29T18:09:27.050Z,22.27
2022-11-29T18:11:56.335Z,21.37
2022-11-29T18:14:29.229Z,21.97
2022-11-29T18:16:59.566Z,22.40
2022-11-29T18:19:29.988Z,21.97
2022-11-29T18:22:04.685Z,22.07
2022-11-29T18:24:34.738Z,20.30
2022-11-29T18:27:05.002Z,20.97
2022-11-29T18:29:39.061Z,22.57
2022-11-29T18:32:09.854Z,22.37
2022-11-29T18:34:40.474Z,22.50
2022-11-29T18:37:17.614Z,23.93
2022-11-29T18:39:54.793Z,23.77
2022-11-29T18:42:25.991Z,23.37
2022-11-29T18:45:00.305Z,24.40
2022-11-29T18:47:33.455Z,22.27
2022-11-29T18:50:07.659Z,24.10
2022-11-29T18:52:40.895Z,23.20
2022-11-29T18:55:11.821Z,25.33
2022-11-29T18:57:42.858Z,23.60
2022-11-29T19:00:14.447Z,23.30
2022-11-29T19:02:45.949Z,20.70
2022-11-29T19:05:15.950Z,23.23
2022-11-29T19:07:48.046Z,22.17
2022-11-29T19:10:19.542Z,20.70
2022-11-29T19:12:49.518Z,21.60
2022-11-29T19:15:21.080Z,22.40
2022-11-29T19:17:53.418Z,22.23
2022-11-29T19:20:23.478Z,22.93
2022-11-29T19:23:00.273Z,21.30
2022-11-29T19:25:33.864Z,21.23
2022-11-29T19:28:03.599Z,21.50
2022-11-29T19:30:34.921Z,22.87
2022-11-29T19:33:04.551Z,24.40
2022-11-29T19:35:34.311Z,23.33
2022-11-29T19:38:08.597Z,24.03
2022-11-29T19:40:41.132Z,23.87
2022-11-29T19:43:11.797Z,23.67
2022-11-29T19:45:42.498Z,21.90
2022-11-29T19:48:16.104Z,22.80
2022-11-29T19:50:46.853Z,24.50
2022-11-29T19:53:22.225Z,25.70
2022-11-29T19:55:52.124Z,22.20
2022-11-29T19:58:23.303Z,22.87
2022-11-29T20:00:55.276Z,24.00
2022-11-29T20:03:25.899Z,26.53
2022-11-29T20:05:58.520Z,25.73
2022-11-29T20:08:30.785Z,23.37
2022-11-29T20:11:08.394Z,23.73
2022-11-29T20:13:39.292Z,24.50
2022-11-29T20:16:11.500Z,23.70
2022-11-29T20:18:48.809Z,25.27
2022-11-29T20:21:21.311Z,25.50
2022-11-29T20:23:57.921Z,24.70
2022-11-29T20:26:29.377Z,24.63
2022-11-29T20:29:00.016Z,26.37
2022-11-29T20:31:30.551Z,23.93
2022-11-29T20:34:03.155Z,23.97
2022-11-29T20:36:46.862Z,22.90
2022-11-29T20:39:26.876Z,20.77
2022-11-29T20:42:14.779Z,22.67
2022-11-29T20:44:50.922Z,22.83
2022-11-29T20:47:23.698Z,23.97
2022-11-29T20:49:57.065Z,20.73
2022-11-29T20:52:35.352Z,23.37
2022-11-29T20:55:06.480Z,21.57
2022-11-29T20:57:39.008Z,23.67
2022-11-29T21:00:11.201Z,22.87
2022-11-29T21:02:43.086Z,23.57
2022-11-29T21:05:13.429Z,24.73
2022-11-29T21:07:42.863Z,23.10
2022-11-29T21:10:19.926Z,23.60
2022-11-29T21:12:50.573Z,21.23
2022-11-29T21:15:22.266Z,23.80
2022-11-29T21:17:53.307Z,22.93
2022-11-29T21:20:24.912Z,23.67
2022-11-29T21:22:59.871Z,18.50
2022-11-29T21:25:39.135Z,23.23
2022-11-29T21:28:12.871Z,21.77
2022-11-29T21:30:42.568Z,23.60
2022-11-29T21:33:12.408Z,21.43
2022-11-29T21:35:42.034Z,23.80
2022-11-29T21:38:14.920Z,23.23
2022-11-29T21:40:45.068Z,21.23
2022-11-29T21:43:13.502Z,23.70
2022-11-29T21:45:42.494Z,21.90
2022-11-29T21:48:30.910Z,21.87
2022-11-29T21:50:59.236Z,22.70
2022-11-29T21:53:28.033Z,22.50
2022-11-29T21:56:02.322Z,21.43
2022-11-29T21:58:32.762Z,20.47
2022-11-29T22:01:07.800Z,22.23
2022-11-29T22:03:36.162Z,22.47
2022-11-29T22:06:05.489Z,20.77
2022-11-29T22:08:38.981Z,23.67
2022-11-29T22:11:10.552Z,21.33
2022-11-29T22:14:00.138Z,22.63
2022-11-29T22:16:28.682Z,21.57
2022-11-29T22:18:56.978Z,21.70
2022-11-29T22:21:25.266Z,22.20
2022-11-29T22:23:53.845Z,21.97
2022-11-29T22:26:24.267Z,21.83
2022-11-29T22:28:52.684Z,21.90
2022-11-29T22:31:21.005Z,21.70
2022-11-29T22:33:49.280Z,22.17
2022-11-29T22:36:17.662Z,22.20
2022-11-29T22:38:45.988Z,20.00
2022-11-29T22:41:14.898Z,20.80
2022-11-29T22:43:44.846Z,20.77
2022-11-29T22:46:14.601Z,21.67
2022-11-29T22:48:43.979Z,21.00
2022-11-29T22:51:14.349Z,23.07
2022-11-29T22:53:43.647Z,22.93
2022-11-29T22:56:12.779Z,19.40
2022-11-29T22:58:41.092Z,21.73
2022-11-29T23:01:12.569Z,21.40
2022-11-29T23:03:42.621Z,21.80
2022-11-29T23:06:12.615Z,19.23
2022-11-29T23:08:42.392Z,22.23
2022-11-29T23:11:14.149Z,21.20
2022-11-29T23:13:43.593Z,21.90
2022-11-29T23:16:15.250Z,20.03
2022-11-29T23:18:45.679Z,20.30
2022-11-29T23:21:15.919Z,22.87
2022-11-29T23:23:44.920Z,21.30
2022-11-29T23:26:19.502Z,20.57
2022-11-29T23:28:48.227Z,20.73
2022-11-29T23:31:18.559Z,19.23
2022-11-29T23:33:47.138Z,22.20
2022-11-29T23:36:16.808Z,20.93
2022-11-29T23:38:45.269Z,19.43
2022-11-29T23:41:13.907Z,20.80
2022-11-29T23:43:42.600Z,19.20
2022-11-29T23:46:13.909Z,19.63
2022-11-29T23:48:43.994Z,20.40
2022-11-29T23:51:12.780Z,19.60
2022-11-29T23:53:41.627Z,19.47
2022-11-29T23:56:13.989Z,18.63
2022-11-29T23:58:42.423Z,19.80
